sensor_id;sensor_type;location;lat;lon;timestamp;P1;durP1;ratioP1;P2;durP2;ratioP2
18142;SDS011;9197;50.930;3.140;2023-04-24T00:01:25;10.57;;;9.33;;
18142;SDS011;9197;50.930;3.140;2023-04-24T00:03:54;9.70;;;8.70;;
18142;SDS011;9197;50.930;3.140;2023-04-24T00:06:24;10.53;;;8.33;;
18142;SDS011;9197;50.930;3.140;2023-04-24T00:08:58;10.63;;;8.43;;
18142;SDS011;9197;50.930;3.140;2023-04-24T00:11:26;11.17;;;9.03;;
18142;SDS011;9197;50.930;3.140;2023-04-24T00:13:53;10.43;;;8.60;;
18142;SDS011;9197;50.930;3.140;2023-04-24T00:16:21;10.57;;;8.63;;
18142;SDS011;9197;50.930;3.140;2023-04-24T00:18:49;8.53;;;7.60;;
18142;SDS011;9197;50.930;3.140;2023-04-24T00:21:17;11.37;;;9.30;;
18142;SDS011;9197;50.930;3.140;2023-04-24T00:23:45;9.83;;;7.67;;
18142;SDS011;9197;50.930;3.140;2023-04-24T00:26:12;9.10;;;7.97;;
18142;SDS011;9197;50.930;3.140;2023-04-24T00:28:40;11.93;;;8.67;;
18142;SDS011;9197;50.930;3.140;2023-04-24T00:31:07;9.27;;;7.90;;
18142;SDS011;9197;50.930;3.140;2023-04-24T00:33:35;8.87;;;7.60;;
18142;SDS011;9197;50.930;3.140;2023-04-24T00:36:03;10.37;;;8.60;;
18142;SDS011;9197;50.930;3.140;2023-04-24T00:38:30;8.50;;;7.70;;
18142;SDS011;9197;50.930;3.140;2023-04-24T00:40:58;9.37;;;8.37;;
18142;SDS011;9197;50.930;3.140;2023-04-24T00:43:25;12.13;;;8.57;;
18142;SDS011;9197;50.930;3.140;2023-04-24T00:45:52;13.07;;;11.03;;
18142;SDS011;9197;50.930;3.140;2023-04-24T00:48:19;15.20;;;11.47;;
18142;SDS011;9197;50.930;3.140;2023-04-24T00:50:48;19.83;;;13.67;;
18142;SDS011;9197;50.930;3.140;2023-04-24T00:53:15;17.73;;;12.23;;
18142;SDS011;9197;50.930;3.140;2023-04-24T00:55:43;20.80;;;13.33;;
18142;SDS011;9197;50.930;3.140;2023-04-24T00:58:10;21.13;;;13.37;;
18142;SDS011;9197;50.930;3.140;2023-04-24T01:00:37;19.10;;;15.50;;
18142;SDS011;9197;50.930;3.140;2023-04-24T01:03:05;17.60;;;14.23;;
18142;SDS011;9197;50.930;3.140;2023-04-24T01:05:33;18.43;;;15.73;;
18142;SDS011;9197;50.930;3.140;2023-04-24T01:08:02;22.67;;;15.80;;
18142;SDS011;9197;50.930;3.140;2023-04-24T01:10:29;23.87;;;16.27;;
18142;SDS011;9197;50.930;3.140;2023-04-24T01:12:58;23.63;;;16.63;;
18142;SDS011;9197;50.930;3.140;2023-04-24T01:15:25;19.93;;;16.37;;
18142;SDS011;9197;50.930;3.140;2023-04-24T01:17:52;20.70;;;16.37;;
18142;SDS011;9197;50.930;3.140;2023-04-24T01:20:20;20.33;;;16.27;;
18142;SDS011;9197;50.930;3.140;2023-04-24T01:22:48;21.17;;;15.67;;
18142;SDS011;9197;50.930;3.140;2023-04-24T01:25:15;22.23;;;16.67;;
18142;SDS011;9197;50.930;3.140;2023-04-24T01:27:43;23.87;;;16.50;;
18142;SDS011;9197;50.930;3.140;2023-04-24T01:30:11;21.37;;;16.00;;
18142;SDS011;9197;50.930;3.140;2023-04-24T01:32:38;23.03;;;16.70;;
18142;SDS011;9197;50.930;3.140;2023-04-24T01:35:06;22.17;;;17.53;;
18142;SDS011;9197;50.930;3.140;2023-04-24T01:37:33;23.53;;;18.43;;
18142;SDS011;9197;50.930;3.140;2023-04-24T01:40:04;22.57;;;18.60;;
18142;SDS011;9197;50.930;3.140;2023-04-24T01:42:31;25.17;;;18.73;;
18142;SDS011;9197;50.930;3.140;2023-04-24T01:44:58;23.40;;;18.13;;
18142;SDS011;9197;50.930;3.140;2023-04-24T01:47:26;25.03;;;18.33;;
18142;SDS011;9197;50.930;3.140;2023-04-24T01:49:53;23.80;;;18.70;;
18142;SDS011;9197;50.930;3.140;2023-04-24T01:52:21;24.03;;;18.63;;
18142;SDS011;9197;50.930;3.140;2023-04-24T01:54:48;25.73;;;17.97;;
18142;SDS011;9197;50.930;3.140;2023-04-24T01:57:17;25.17;;;16.93;;
18142;SDS011;9197;50.930;3.140;2023-04-24T01:59:44;23.90;;;17.00;;
18142;SDS011;9197;50.930;3.140;2023-04-24T02:02:11;21.80;;;15.77;;
18142;SDS011;9197;50.930;3.140;2023-04-24T02:04:39;26.83;;;14.67;;
18142;SDS011;9197;50.930;3.140;2023-04-24T02:07:06;21.40;;;14.00;;
18142;SDS011;9197;50.930;3.140;2023-04-24T02:09:33;24.17;;;15.57;;
18142;SDS011;9197;50.930;3.140;2023-04-24T02:12:00;20.43;;;14.60;;
18142;SDS011;9197;50.930;3.140;2023-04-24T02:14:29;19.60;;;13.17;;
18142;SDS011;9197;50.930;3.140;2023-04-24T02:16:56;17.23;;;11.23;;
18142;SDS011;9197;50.930;3.140;2023-04-24T02:19:23;14.13;;;10.47;;
18142;SDS011;9197;50.930;3.140;2023-04-24T02:21:51;14.93;;;9.73;;
18142;SDS011;9197;50.930;3.140;2023-04-24T02:24:18;12.77;;;7.77;;
18142;SDS011;9197;50.930;3.140;2023-04-24T02:26:45;14.17;;;7.57;;
18142;SDS011;9197;50.930;3.140;2023-04-24T02:29:12;11.00;;;6.47;;
18142;SDS011;9197;50.930;3.140;2023-04-24T02:31:41;11.77;;;6.90;;
18142;SDS011;9197;50.930;3.140;2023-04-24T02:34:08;17.50;;;7.60;;
18142;SDS011;9197;50.930;3.140;2023-04-24T02:36:35;11.33;;;7.23;;
18142;SDS011;9197;50.930;3.140;2023-04-24T02:39:02;13.33;;;9.17;;
18142;SDS011;9197;50.930;3.140;2023-04-24T02:41:30;16.73;;;10.00;;
18142;SDS011;9197;50.930;3.140;2023-04-24T02:43:57;14.27;;;11.10;;
18142;SDS011;9197;50.930;3.140;2023-04-24T02:46:25;20.00;;;12.40;;
18142;SDS011;9197;50.930;3.140;2023-04-24T02:48:53;17.20;;;12.67;;
18142;SDS011;9197;50.930;3.140;2023-04-24T02:51:20;15.23;;;12.37;;
18142;SDS011;9197;50.930;3.140;2023-04-24T02:53:48;23.17;;;13.10;;
18142;SDS011;9197;50.930;3.140;2023-04-24T02:56:15;23.17;;;14.23;;
18142;SDS011;9197;50.930;3.140;2023-04-24T02:58:42;18.20;;;14.17;;
18142;SDS011;9197;50.930;3.140;2023-04-24T03:01:10;21.77;;;15.10;;
18142;SDS011;9197;50.930;3.140;2023-04-24T03:03:37;21.30;;;14.93;;
18142;SDS011;9197;50.930;3.140;2023-04-24T03:06:06;24.63;;;16.60;;
18142;SDS011;9197;50.930;3.140;2023-04-24T03:08:34;26.27;;;16.57;;
18142;SDS011;9197;50.930;3.140;2023-04-24T03:11:01;24.87;;;16.43;;
18142;SDS011;9197;50.930;3.140;2023-04-24T03:13:28;27.47;;;16.77;;
18142;SDS011;9197;50.930;3.140;2023-04-24T03:15:55;33.00;;;17.60;;
18142;SDS011;9197;50.930;3.140;2023-04-24T03:18:22;26.73;;;17.13;;
18142;SDS011;9197;50.930;3.140;2023-04-24T03:20:50;32.13;;;17.47;;
18142;SDS011;9197;50.930;3.140;2023-04-24T03:23:19;27.57;;;18.00;;
18142;SDS011;9197;50.930;3.140;2023-04-24T03:25:46;25.50;;;17.47;;
18142;SDS011;9197;50.930;3.140;2023-04-24T03:28:13;32.07;;;19.17;;
18142;SDS011;9197;50.930;3.140;2023-04-24T03:30:40;28.57;;;16.47;;
18142;SDS011;9197;50.930;3.140;2023-04-24T03:33:08;24.70;;;17.17;;
18142;SDS011;9197;50.930;3.140;2023-04-24T03:35:35;28.53;;;19.43;;
18142;SDS011;9197;50.930;3.140;2023-04-24T03:38:02;21.47;;;16.63;;
18142;SDS011;9197;50.930;3.140;2023-04-24T03:40:31;21.00;;;15.80;;
18142;SDS011;9197;50.930;3.140;2023-04-24T03:42:59;26.43;;;17.73;;
18142;SDS011;9197;50.930;3.140;2023-04-24T03:45:26;24.13;;;17.07;;
18142;SDS011;9197;50.930;3.140;2023-04-24T03:47:54;29.60;;;15.63;;
18142;SDS011;9197;50.930;3.140;2023-04-24T03:50:21;21.43;;;15.10;;
18142;SDS011;9197;50.930;3.140;2023-04-24T03:52:48;18.47;;;16.47;;
18142;SDS011;9197;50.930;3.140;2023-04-24T03:55:15;26.03;;;15.30;;
18142;SDS011;9197;50.930;3.140;2023-04-24T03:57:44;24.47;;;15.13;;
18142;SDS011;9197;50.930;3.140;2023-04-24T04:00:11;18.70;;;15.83;;
18142;SDS011;9197;50.930;3.140;2023-04-24T04:02:39;22.37;;;15.37;;
18142;SDS011;9197;50.930;3.140;2023-04-24T04:05:06;23.87;;;15.40;;
18142;SDS011;9197;50.930;3.140;2023-04-24T04:07:34;24.57;;;17.23;;
18142;SDS011;9197;50.930;3.140;2023-04-24T04:10:01;22.80;;;15.47;;
18142;SDS011;9197;50.930;3.140;2023-04-24T04:12:28;26.47;;;16.97;;
18142;SDS011;9197;50.930;3.140;2023-04-24T04:14:57;19.40;;;14.67;;
18142;SDS011;9197;50.930;3.140;2023-04-24T04:17:25;21.07;;;14.80;;
18142;SDS011;9197;50.930;3.140;2023-04-24T04:19:52;19.73;;;15.17;;
18142;SDS011;9197;50.930;3.140;2023-04-24T04:22:19;21.93;;;14.93;;
18142;SDS011;9197;50.930;3.140;2023-04-24T04:24:46;28.70;;;16.93;;
18142;SDS011;9197;50.930;3.140;2023-04-24T04:27:15;21.70;;;15.67;;
18142;SDS011;9197;50.930;3.140;2023-04-24T04:29:43;26.17;;;16.40;;
18142;SDS011;9197;50.930;3.140;2023-04-24T04:32:12;31.17;;;15.40;;
18142;SDS011;9197;50.930;3.140;2023-04-24T04:34:40;23.50;;;15.87;;
18142;SDS011;9197;50.930;3.140;2023-04-24T04:37:08;27.37;;;16.50;;
18142;SDS011;9197;50.930;3.140;2023-04-24T04:39:36;25.97;;;16.97;;
18142;SDS011;9197;50.930;3.140;2023-04-24T04:42:03;28.53;;;17.90;;
18142;SDS011;9197;50.930;3.140;2023-04-24T04:44:31;30.07;;;16.23;;
18142;SDS011;9197;50.930;3.140;2023-04-24T04:47:00;24.67;;;17.20;;
18142;SDS011;9197;50.930;3.140;2023-04-24T04:49:31;32.93;;;18.53;;
18142;SDS011;9197;50.930;3.140;2023-04-24T04:51:59;29.27;;;18.13;;
18142;SDS011;9197;50.930;3.140;2023-04-24T04:54:26;23.60;;;17.30;;
18142;SDS011;9197;50.930;3.140;2023-04-24T04:56:54;23.70;;;17.67;;
18142;SDS011;9197;50.930;3.140;2023-04-24T04:59:22;24.63;;;16.97;;
18142;SDS011;9197;50.930;3.140;2023-04-24T05:01:50;28.17;;;17.40;;
18142;SDS011;9197;50.930;3.140;2023-04-24T05:04:17;23.77;;;16.70;;
18142;SDS011;9197;50.930;3.140;2023-04-24T05:06:46;26.20;;;17.20;;
18142;SDS011;9197;50.930;3.140;2023-04-24T05:09:13;30.27;;;16.50;;
18142;SDS011;9197;50.930;3.140;2023-04-24T05:11:41;24.83;;;17.33;;
18142;SDS011;9197;50.930;3.140;2023-04-24T05:14:08;29.50;;;20.17;;
18142;SDS011;9197;50.930;3.140;2023-04-24T05:16:35;31.00;;;18.50;;
18142;SDS011;9197;50.930;3.140;2023-04-24T05:19:03;26.87;;;19.20;;
18142;SDS011;9197;50.930;3.140;2023-04-24T05:21:30;29.50;;;18.00;;
18142;SDS011;9197;50.930;3.140;2023-04-24T05:23:59;29.07;;;17.20;;
18142;SDS011;9197;50.930;3.140;2023-04-24T05:26:26;30.90;;;17.97;;
18142;SDS011;9197;50.930;3.140;2023-04-24T05:28:53;35.50;;;17.77;;
18142;SDS011;9197;50.930;3.140;2023-04-24T05:31:20;24.30;;;17.57;;
18142;SDS011;9197;50.930;3.140;2023-04-24T05:33:47;25.57;;;18.43;;
18142;SDS011;9197;50.930;3.140;2023-04-24T05:36:14;21.80;;;17.50;;
18142;SDS011;9197;50.930;3.140;2023-04-24T05:38:43;32.87;;;18.27;;
18142;SDS011;9197;50.930;3.140;2023-04-24T05:41:11;25.70;;;17.07;;
18142;SDS011;9197;50.930;3.140;2023-04-24T05:43:38;26.97;;;17.97;;
18142;SDS011;9197;50.930;3.140;2023-04-24T05:46:06;29.23;;;17.23;;
18142;SDS011;9197;50.930;3.140;2023-04-24T05:48:33;23.70;;;15.80;;
18142;SDS011;9197;50.930;3.140;2023-04-24T05:51:00;25.70;;;15.50;;
18142;SDS011;9197;50.930;3.140;2023-04-24T05:53:27;23.50;;;15.53;;
18142;SDS011;9197;50.930;3.140;2023-04-24T05:55:55;34.10;;;16.43;;
18142;SDS011;9197;50.930;3.140;2023-04-24T05:58:24;21.93;;;14.37;;
18142;SDS011;9197;50.930;3.140;2023-04-24T06:00:52;24.90;;;14.47;;
18142;SDS011;9197;50.930;3.140;2023-04-24T06:03:20;23.30;;;14.33;;
18142;SDS011;9197;50.930;3.140;2023-04-24T06:05:47;18.57;;;13.50;;
18142;SDS011;9197;50.930;3.140;2023-04-24T06:08:16;21.03;;;13.60;;
18142;SDS011;9197;50.930;3.140;2023-04-24T06:10:43;18.23;;;13.03;;
18142;SDS011;9197;50.930;3.140;2023-04-24T06:13:10;22.83;;;13.50;;
18142;SDS011;9197;50.930;3.140;2023-04-24T06:15:39;19.77;;;11.80;;
18142;SDS011;9197;50.930;3.140;2023-04-24T06:18:07;19.50;;;12.47;;
18142;SDS011;9197;50.930;3.140;2023-04-24T06:20:35;22.67;;;12.40;;
18142;SDS011;9197;50.930;3.140;2023-04-24T06:23:02;19.50;;;11.07;;
18142;SDS011;9197;50.930;3.140;2023-04-24T06:25:29;15.00;;;10.30;;
18142;SDS011;9197;50.930;3.140;2023-04-24T06:27:57;21.53;;;10.30;;
18142;SDS011;9197;50.930;3.140;2023-04-24T06:30:24;16.07;;;10.20;;
18142;SDS011;9197;50.930;3.140;2023-04-24T06:32:53;18.77;;;10.07;;
18142;SDS011;9197;50.930;3.140;2023-04-24T06:35:20;17.20;;;10.40;;
18142;SDS011;9197;50.930;3.140;2023-04-24T06:37:48;23.07;;;10.63;;
18142;SDS011;9197;50.930;3.140;2023-04-24T06:40:15;15.60;;;9.67;;
18142;SDS011;9197;50.930;3.140;2023-04-24T06:42:43;12.83;;;8.90;;
18142;SDS011;9197;50.930;3.140;2023-04-24T06:45:10;12.67;;;7.87;;
18142;SDS011;9197;50.930;3.140;2023-04-24T06:47:38;13.03;;;8.27;;
18142;SDS011;9197;50.930;3.140;2023-04-24T06:50:07;14.67;;;8.30;;
18142;SDS011;9197;50.930;3.140;2023-04-24T06:52:34;16.43;;;8.10;;
18142;SDS011;9197;50.930;3.140;2023-04-24T06:55:03;14.30;;;8.60;;
18142;SDS011;9197;50.930;3.140;2023-04-24T06:57:30;13.87;;;7.23;;
18142;SDS011;9197;50.930;3.140;2023-04-24T06:59:57;13.30;;;8.20;;
18142;SDS011;9197;50.930;3.140;2023-04-24T07:02:25;12.20;;;6.80;;
18142;SDS011;9197;50.930;3.140;2023-04-24T07:04:52;13.97;;;7.90;;
18142;SDS011;9197;50.930;3.140;2023-04-24T07:07:20;16.93;;;7.80;;
18142;SDS011;9197;50.930;3.140;2023-04-24T07:09:48;14.97;;;6.70;;
18142;SDS011;9197;50.930;3.140;2023-04-24T07:12:15;12.33;;;6.47;;
18142;SDS011;9197;50.930;3.140;2023-04-24T07:14:45;14.43;;;6.50;;
18142;SDS011;9197;50.930;3.140;2023-04-24T07:17:13;17.40;;;6.97;;
18142;SDS011;9197;50.930;3.140;2023-04-24T07:19:40;10.20;;;6.10;;
18142;SDS011;9197;50.930;3.140;2023-04-24T07:22:07;16.90;;;8.80;;
18142;SDS011;9197;50.930;3.140;2023-04-24T07:24:37;8.07;;;5.37;;
18142;SDS011;9197;50.930;3.140;2023-04-24T07:27:05;10.30;;;5.10;;
18142;SDS011;9197;50.930;3.140;2023-04-24T07:29:32;11.47;;;5.00;;
18142;SDS011;9197;50.930;3.140;2023-04-24T07:31:59;11.97;;;6.10;;
18142;SDS011;9197;50.930;3.140;2023-04-24T07:34:26;9.13;;;5.07;;
18142;SDS011;9197;50.930;3.140;2023-04-24T07:36:53;12.00;;;6.10;;
18142;SDS011;9197;50.930;3.140;2023-04-24T07:39:21;15.13;;;6.17;;
18142;SDS011;9197;50.930;3.140;2023-04-24T07:41:49;11.93;;;5.53;;
18142;SDS011;9197;50.930;3.140;2023-04-24T07:44:16;8.77;;;5.43;;
18142;SDS011;9197;50.930;3.140;2023-04-24T07:46:43;11.47;;;5.23;;
18142;SDS011;9197;50.930;3.140;2023-04-24T07:49:11;12.03;;;4.57;;
18142;SDS011;9197;50.930;3.140;2023-04-24T07:51:38;10.90;;;4.77;;
18142;SDS011;9197;50.930;3.140;2023-04-24T07:54:05;7.53;;;4.00;;
18142;SDS011;9197;50.930;3.140;2023-04-24T07:56:32;9.57;;;4.23;;
18142;SDS011;9197;50.930;3.140;2023-04-24T07:59:05;12.00;;;4.27;;
18142;SDS011;9197;50.930;3.140;2023-04-24T08:01:32;8.30;;;4.80;;
18142;SDS011;9197;50.930;3.140;2023-04-24T08:03:59;8.77;;;5.03;;
18142;SDS011;9197;50.930;3.140;2023-04-24T08:06:26;9.70;;;4.70;;
18142;SDS011;9197;50.930;3.140;2023-04-24T08:08:55;8.77;;;4.87;;
18142;SDS011;9197;50.930;3.140;2023-04-24T08:11:22;7.87;;;5.17;;
18142;SDS011;9197;50.930;3.140;2023-04-24T08:13:49;7.93;;;4.87;;
18142;SDS011;9197;50.930;3.140;2023-04-24T08:16:18;9.20;;;5.57;;
18142;SDS011;9197;50.930;3.140;2023-04-24T08:18:45;14.23;;;6.00;;
18142;SDS011;9197;50.930;3.140;2023-04-24T08:21:12;16.17;;;5.43;;
18142;SDS011;9197;50.930;3.140;2023-04-24T08:23:42;8.30;;;5.93;;
18142;SDS011;9197;50.930;3.140;2023-04-24T08:26:09;9.50;;;5.33;;
18142;SDS011;9197;50.930;3.140;2023-04-24T08:28:36;11.27;;;5.20;;
18142;SDS011;9197;50.930;3.140;2023-04-24T08:31:04;12.70;;;6.07;;
18142;SDS011;9197;50.930;3.140;2023-04-24T08:33:32;8.70;;;6.10;;
18142;SDS011;9197;50.930;3.140;2023-04-24T08:36:00;12.63;;;6.80;;
18142;SDS011;9197;50.930;3.140;2023-04-24T08:38:27;10.73;;;6.50;;
18142;SDS011;9197;50.930;3.140;2023-04-24T08:40:54;11.60;;;6.63;;
18142;SDS011;9197;50.930;3.140;2023-04-24T08:43:23;13.50;;;7.70;;
18142;SDS011;9197;50.930;3.140;2023-04-24T08:45:51;12.03;;;6.67;;
18142;SDS011;9197;50.930;3.140;2023-04-24T08:48:18;13.53;;;8.67;;
18142;SDS011;9197;50.930;3.140;2023-04-24T08:50:46;10.83;;;7.50;;
18142;SDS011;9197;50.930;3.140;2023-04-24T08:53:14;10.47;;;7.70;;
18142;SDS011;9197;50.930;3.140;2023-04-24T08:55:42;13.23;;;8.23;;
18142;SDS011;9197;50.930;3.140;2023-04-24T08:58:10;12.30;;;8.17;;
18142;SDS011;9197;50.930;3.140;2023-04-24T09:00:37;8.70;;;7.20;;
18142;SDS011;9197;50.930;3.140;2023-04-24T09:03:09;14.53;;;7.80;;
18142;SDS011;9197;50.930;3.140;2023-04-24T09:05:36;12.57;;;8.13;;
18142;SDS011;9197;50.930;3.140;2023-04-24T09:08:07;12.83;;;7.33;;
18142;SDS011;9197;50.930;3.140;2023-04-24T09:10:36;10.73;;;8.00;;
18142;SDS011;9197;50.930;3.140;2023-04-24T09:13:03;13.07;;;8.30;;
18142;SDS011;9197;50.930;3.140;2023-04-24T09:15:31;14.47;;;9.03;;
18142;SDS011;9197;50.930;3.140;2023-04-24T09:17:59;9.57;;;8.13;;
18142;SDS011;9197;50.930;3.140;2023-04-24T09:20:26;12.77;;;8.47;;
18142;SDS011;9197;50.930;3.140;2023-04-24T09:22:54;13.30;;;8.80;;
18142;SDS011;9197;50.930;3.140;2023-04-24T09:25:24;10.43;;;8.87;;
18142;SDS011;9197;50.930;3.140;2023-04-24T09:27:53;16.13;;;9.00;;
18142;SDS011;9197;50.930;3.140;2023-04-24T09:30:21;11.70;;;7.83;;
18142;SDS011;9197;50.930;3.140;2023-04-24T09:32:48;13.20;;;8.17;;
18142;SDS011;9197;50.930;3.140;2023-04-24T09:35:16;10.97;;;8.63;;
18142;SDS011;9197;50.930;3.140;2023-04-24T09:37:45;11.80;;;8.53;;
18142;SDS011;9197;50.930;3.140;2023-04-24T09:40:15;11.10;;;8.03;;
18142;SDS011;9197;50.930;3.140;2023-04-24T09:42:51;14.23;;;8.17;;
18142;SDS011;9197;50.930;3.140;2023-04-24T09:45:18;9.50;;;7.17;;
18142;SDS011;9197;50.930;3.140;2023-04-24T09:47:45;6.67;;;5.97;;
18142;SDS011;9197;50.930;3.140;2023-04-24T09:50:13;6.20;;;5.60;;
18142;SDS011;9197;50.930;3.140;2023-04-24T09:52:42;8.53;;;6.73;;
18142;SDS011;9197;50.930;3.140;2023-04-24T09:55:13;12.57;;;6.60;;
18142;SDS011;9197;50.930;3.140;2023-04-24T09:58:00;15.07;;;6.50;;
18142;SDS011;9197;50.930;3.140;2023-04-24T10:00:31;7.53;;;5.30;;
18142;SDS011;9197;50.930;3.140;2023-04-24T10:02:59;7.17;;;5.90;;
18142;SDS011;9197;50.930;3.140;2023-04-24T10:05:27;6.50;;;5.47;;
18142;SDS011;9197;50.930;3.140;2023-04-24T10:07:56;9.10;;;5.40;;
18142;SDS011;9197;50.930;3.140;2023-04-24T10:10:23;12.13;;;7.20;;
18142;SDS011;9197;50.930;3.140;2023-04-24T10:12:51;7.73;;;5.30;;
18142;SDS011;9197;50.930;3.140;2023-04-24T10:15:19;10.40;;;6.20;;
18142;SDS011;9197;50.930;3.140;2023-04-24T10:17:47;8.10;;;6.07;;
18142;SDS011;9197;50.930;3.140;2023-04-24T10:20:17;10.10;;;6.77;;
18142;SDS011;9197;50.930;3.140;2023-04-24T10:22:45;9.57;;;6.53;;
18142;SDS011;9197;50.930;3.140;2023-04-24T10:25:15;10.03;;;5.33;;
18142;SDS011;9197;50.930;3.140;2023-04-24T10:27:43;8.53;;;5.23;;
18142;SDS011;9197;50.930;3.140;2023-04-24T10:30:11;6.00;;;5.50;;
18142;SDS011;9197;50.930;3.140;2023-04-24T10:32:40;8.37;;;5.33;;
18142;SDS011;9197;50.930;3.140;2023-04-24T10:35:07;7.33;;;5.27;;
18142;SDS011;9197;50.930;3.140;2023-04-24T10:37:36;7.65;;;4.80;;
18142;SDS011;9197;50.930;3.140;2023-04-24T10:40:04;5.68;;;5.18;;
18142;SDS011;9197;50.930;3.140;2023-04-24T10:42:32;6.93;;;5.03;;
18142;SDS011;9197;50.930;3.140;2023-04-24T10:44:59;8.13;;;5.07;;
18142;SDS011;9197;50.930;3.140;2023-04-24T10:47:27;5.78;;;4.53;;
18142;SDS011;9197;50.930;3.140;2023-04-24T10:49:55;10.32;;;4.95;;
18142;SDS011;9197;50.930;3.140;2023-04-24T10:52:37;6.13;;;3.83;;
18142;SDS011;9197;50.930;3.140;2023-04-24T10:55:11;6.50;;;4.47;;
18142;SDS011;9197;50.930;3.140;2023-04-24T10:57:39;6.27;;;4.77;;
18142;SDS011;9197;50.930;3.140;2023-04-24T11:00:10;6.90;;;4.37;;
18142;SDS011;9197;50.930;3.140;2023-04-24T11:02:38;7.33;;;4.33;;
18142;SDS011;9197;50.930;3.140;2023-04-24T11:05:14;6.83;;;4.03;;
18142;SDS011;9197;50.930;3.140;2023-04-24T11:10:28;4.93;;;4.20;;
18142;SDS011;9197;50.930;3.140;2023-04-24T11:12:55;5.10;;;3.80;;
18142;SDS011;9197;50.930;3.140;2023-04-24T11:15:22;8.33;;;4.90;;
18142;SDS011;9197;50.930;3.140;2023-04-24T11:17:49;9.30;;;5.40;;
18142;SDS011;9197;50.930;3.140;2023-04-24T11:20:24;12.77;;;5.73;;
18142;SDS011;9197;50.930;3.140;2023-04-24T11:22:52;6.20;;;5.03;;
18142;SDS011;9197;50.930;3.140;2023-04-24T11:25:20;9.03;;;5.13;;
18142;SDS011;9197;50.930;3.140;2023-04-24T11:27:48;6.83;;;4.63;;
18142;SDS011;9197;50.930;3.140;2023-04-24T11:30:17;7.50;;;4.77;;
18142;SDS011;9197;50.930;3.140;2023-04-24T11:32:47;5.00;;;4.50;;
18142;SDS011;9197;50.930;3.140;2023-04-24T11:35:15;7.93;;;4.47;;
18142;SDS011;9197;50.930;3.140;2023-04-24T11:37:44;8.27;;;3.93;;
18142;SDS011;9197;50.930;3.140;2023-04-24T11:40:13;4.80;;;3.10;;
18142;SDS011;9197;50.930;3.140;2023-04-24T11:42:42;4.87;;;3.60;;
18142;SDS011;9197;50.930;3.140;2023-04-24T11:45:10;6.63;;;3.30;;
18142;SDS011;9197;50.930;3.140;2023-04-24T11:47:38;10.70;;;4.07;;
18142;SDS011;9197;50.930;3.140;2023-04-24T11:50:06;6.10;;;3.17;;
18142;SDS011;9197;50.930;3.140;2023-04-24T11:52:36;7.80;;;3.00;;
18142;SDS011;9197;50.930;3.140;2023-04-24T11:55:05;7.77;;;3.03;;
18142;SDS011;9197;50.930;3.140;2023-04-24T11:57:33;5.43;;;3.17;;
18142;SDS011;9197;50.930;3.140;2023-04-24T12:00:02;5.00;;;3.07;;
18142;SDS011;9197;50.930;3.140;2023-04-24T12:02:30;5.20;;;3.20;;
18142;SDS011;9197;50.930;3.140;2023-04-24T12:04:57;6.73;;;3.77;;
18142;SDS011;9197;50.930;3.140;2023-04-24T12:07:24;7.17;;;3.80;;
18142;SDS011;9197;50.930;3.140;2023-04-24T12:09:55;6.67;;;3.93;;
18142;SDS011;9197;50.930;3.140;2023-04-24T12:12:24;4.67;;;3.43;;
18142;SDS011;9197;50.930;3.140;2023-04-24T12:14:53;6.03;;;4.00;;
18142;SDS011;9197;50.930;3.140;2023-04-24T12:17:24;5.00;;;3.20;;
18142;SDS011;9197;50.930;3.140;2023-04-24T12:19:52;6.23;;;2.90;;
18142;SDS011;9197;50.930;3.140;2023-04-24T12:22:19;5.33;;;3.23;;
18142;SDS011;9197;50.930;3.140;2023-04-24T12:24:56;5.93;;;2.80;;
18142;SDS011;9197;50.930;3.140;2023-04-24T12:27:25;3.67;;;2.63;;
18142;SDS011;9197;50.930;3.140;2023-04-24T12:29:52;2.60;;;2.40;;
18142;SDS011;9197;50.930;3.140;2023-04-24T12:32:20;5.83;;;2.83;;
18142;SDS011;9197;50.930;3.140;2023-04-24T12:34:47;6.60;;;2.50;;
18142;SDS011;9197;50.930;3.140;2023-04-24T12:37:16;3.57;;;2.40;;
18142;SDS011;9197;50.930;3.140;2023-04-24T12:39:44;5.43;;;2.70;;
18142;SDS011;9197;50.930;3.140;2023-04-24T12:42:27;3.77;;;2.80;;
18142;SDS011;9197;50.930;3.140;2023-04-24T12:44:57;4.70;;;3.30;;
18142;SDS011;9197;50.930;3.140;2023-04-24T12:47:25;4.40;;;3.13;;
18142;SDS011;9197;50.930;3.140;2023-04-24T12:49:53;4.10;;;3.23;;
18142;SDS011;9197;50.930;3.140;2023-04-24T12:52:20;3.93;;;3.60;;
18142;SDS011;9197;50.930;3.140;2023-04-24T12:54:48;4.73;;;2.97;;
18142;SDS011;9197;50.930;3.140;2023-04-24T12:57:15;5.57;;;4.07;;
18142;SDS011;9197;50.930;3.140;2023-04-24T12:59:44;5.80;;;3.80;;
18142;SDS011;9197;50.930;3.140;2023-04-24T13:02:11;7.87;;;3.17;;
18142;SDS011;9197;50.930;3.140;2023-04-24T13:04:39;6.87;;;3.43;;
18142;SDS011;9197;50.930;3.140;2023-04-24T13:07:06;4.13;;;3.00;;
18142;SDS011;9197;50.930;3.140;2023-04-24T13:09:34;4.93;;;3.00;;
18142;SDS011;9197;50.930;3.140;2023-04-24T13:12:01;4.77;;;2.83;;
18142;SDS011;9197;50.930;3.140;2023-04-24T13:14:30;4.27;;;2.07;;
18142;SDS011;9197;50.930;3.140;2023-04-24T13:16:59;3.83;;;2.73;;
18142;SDS011;9197;50.930;3.140;2023-04-24T13:19:26;5.37;;;2.50;;
18142;SDS011;9197;50.930;3.140;2023-04-24T13:21:54;4.33;;;2.57;;
18142;SDS011;9197;50.930;3.140;2023-04-24T13:24:21;3.00;;;2.20;;
18142;SDS011;9197;50.930;3.140;2023-04-24T13:26:50;4.93;;;2.40;;
18142;SDS011;9197;50.930;3.140;2023-04-24T13:29:17;4.23;;;2.33;;
18142;SDS011;9197;50.930;3.140;2023-04-24T13:31:45;4.80;;;2.50;;
18142;SDS011;9197;50.930;3.140;2023-04-24T13:34:14;3.77;;;2.03;;
18142;SDS011;9197;50.930;3.140;2023-04-24T13:36:41;5.60;;;2.30;;
18142;SDS011;9197;50.930;3.140;2023-04-24T13:39:09;2.90;;;2.47;;
18142;SDS011;9197;50.930;3.140;2023-04-24T13:41:36;4.07;;;2.27;;
18142;SDS011;9197;50.930;3.140;2023-04-24T13:44:04;2.77;;;2.30;;
18142;SDS011;9197;50.930;3.140;2023-04-24T13:46:31;4.00;;;2.47;;
18142;SDS011;9197;50.930;3.140;2023-04-24T13:48:58;3.10;;;2.27;;
18142;SDS011;9197;50.930;3.140;2023-04-24T13:51:27;3.27;;;2.23;;
18142;SDS011;9197;50.930;3.140;2023-04-24T13:53:54;2.77;;;2.03;;
18142;SDS011;9197;50.930;3.140;2023-04-24T13:56:22;3.73;;;2.23;;
18142;SDS011;9197;50.930;3.140;2023-04-24T13:58:49;3.37;;;2.10;;
18142;SDS011;9197;50.930;3.140;2023-04-24T14:01:16;4.30;;;2.40;;
18142;SDS011;9197;50.930;3.140;2023-04-24T14:03:43;3.53;;;2.20;;
18142;SDS011;9197;50.930;3.140;2023-04-24T14:06:11;3.70;;;2.40;;
18142;SDS011;9197;50.930;3.140;2023-04-24T14:08:39;6.53;;;2.30;;
18142;SDS011;9197;50.930;3.140;2023-04-24T14:11:06;4.35;;;2.63;;
18142;SDS011;9197;50.930;3.140;2023-04-24T14:13:34;4.43;;;2.57;;
18142;SDS011;9197;50.930;3.140;2023-04-24T14:16:01;4.27;;;2.37;;
18142;SDS011;9197;50.930;3.140;2023-04-24T14:18:28;4.93;;;2.80;;
18142;SDS011;9197;50.930;3.140;2023-04-24T14:20:56;3.70;;;2.50;;
18142;SDS011;9197;50.930;3.140;2023-04-24T14:23:24;4.03;;;2.27;;
18142;SDS011;9197;50.930;3.140;2023-04-24T14:25:52;3.60;;;2.53;;
18142;SDS011;9197;50.930;3.140;2023-04-24T14:28:20;5.50;;;2.40;;
18142;SDS011;9197;50.930;3.140;2023-04-24T14:30:47;3.60;;;2.37;;
18142;SDS011;9197;50.930;3.140;2023-04-24T14:33:15;3.73;;;2.60;;
18142;SDS011;9197;50.930;3.140;2023-04-24T14:35:42;5.40;;;3.17;;
18142;SDS011;9197;50.930;3.140;2023-04-24T14:38:09;4.80;;;2.70;;
18142;SDS011;9197;50.930;3.140;2023-04-24T14:40:36;4.43;;;2.47;;
18142;SDS011;9197;50.930;3.140;2023-04-24T14:43:05;4.27;;;3.20;;
18142;SDS011;9197;50.930;3.140;2023-04-24T14:45:34;3.03;;;1.83;;
18142;SDS011;9197;50.930;3.140;2023-04-24T14:48:03;4.13;;;1.90;;
18142;SDS011;9197;50.930;3.140;2023-04-24T14:50:30;6.83;;;2.23;;
18142;SDS011;9197;50.930;3.140;2023-04-24T14:52:58;2.50;;;2.30;;
18142;SDS011;9197;50.930;3.140;2023-04-24T14:55:27;4.93;;;3.67;;